Time;durP1;ratioP1;P1;durP2;ratioP2;P2;SDS_P1;SDS_P2;PMS_P1;PMS_P2;Temp;Humidity;BMP_temperature;BMP_pressure;BME280_temperature;BME280_humidity;BME280_pressure;Samples;Min_cycle;Max_cycle;Signal;HPM_P1;HPM_P2
2022/11/25 00:01:32;;;;;;;12.90;2.85;;;;;;;8.35;96.93;100834.09;4994352;28;20115;-75
2022/11/25 00:03:58;;;;;;;15.80;2.67;;;;;;;8.40;96.77;100845.53;5006583;28;20041;-74
2022/11/25 00:06:25;;;;;;;12.32;2.50;;;;;;;8.43;96.89;100826.34;5008700;28;20528;-74
2022/11/25 00:09:01;;;;;;;20.33;3.13;;;;;;;8.43;97.25;100832.63;5007460;28;20389;-74
2022/11/25 00:11:27;;;;;;;16.92;2.60;;;;;;;8.43;97.30;100832.63;5005039;28;20045;-74
2022/11/25 00:13:53;;;;;;;14.68;2.83;;;;;;;8.48;96.82;100828.75;4992975;28;20137;-75
2022/11/25 00:16:20;;;;;;;14.80;3.05;;;;;;;8.48;96.57;100828.75;4971205;28;20441;-74
2022/11/25 00:18:48;;;;;;;16.33;3.47;;;;;;;8.50;97.08;100824.13;4983721;28;20032;-74
2022/11/25 00:21:16;;;;;;;15.63;2.85;;;;;;;8.46;97.36;100815.31;4986976;28;20039;-74
2022/11/25 00:23:42;;;;;;;15.13;3.20;;;;;;;8.50;96.70;100810.56;4986103;28;20041;-74
2022/11/25 00:26:13;;;;;;;14.02;2.47;;;;;;;8.50;97.31;100807.84;4986315;28;20498;-74
2022/11/25 00:28:40;;;;;;;19.02;3.40;;;;;;;8.53;96.41;100807.63;4991114;28;20036;-74
2022/11/25 00:31:13;;;;;;;11.10;2.53;;;;;;;8.55;96.70;100808.44;5002655;28;20061;-75
2022/11/25 00:33:40;;;;;;;10.77;2.50;;;;;;;8.53;96.78;100808.50;5001567;28;20674;-74
2022/11/25 00:36:13;;;;;;;8.50;2.60;;;;;;;8.50;96.71;100805.16;5002882;28;20041;-74
2022/11/25 00:38:38;;;;;;;13.18;2.80;;;;;;;8.50;97.48;100807.84;4986602;28;20600;-75
2022/11/25 00:46:31;;;;;;;12.77;2.83;;;;;;;8.50;96.76;100797.00;4987868;28;20533;-75
2022/11/25 00:48:57;;;;;;;9.98;2.80;;;;;;;8.50;96.66;100791.59;4985155;28;20109;-74
2022/11/25 00:51:22;;;;;;;12.98;2.63;;;;;;;8.51;96.82;100796.91;4986320;28;20045;-74
2022/11/25 00:53:48;;;;;;;14.30;2.50;;;;;;;8.51;96.87;100796.91;4985853;28;20427;-74
2022/11/25 00:56:13;;;;;;;10.10;2.40;;;;;;;8.51;96.64;100793.31;4987401;28;20069;-74
2022/11/25 00:58:40;;;;;;;12.65;2.58;;;;;;;8.53;96.80;100803.09;4997289;28;20053;-74
2022/11/25 01:01:05;;;;;;;11.13;2.45;;;;;;;8.52;96.56;100797.78;4987467;28;20026;-74
2022/11/25 01:03:31;;;;;;;12.13;2.30;;;;;;;8.53;96.72;100805.78;4983860;28;20045;-74
2022/11/25 01:06:01;;;;;;;15.45;2.47;;;;;;;8.55;96.76;100812.00;4987921;28;20512;-74
2022/11/25 01:08:29;;;;;;;13.85;2.38;;;;;;;8.55;96.40;100805.72;4969772;28;20042;-74
2022/11/25 01:11:19;;;;;;;14.10;2.80;;;;;;;8.57;96.68;100801.91;4986357;28;20046;-74
2022/11/25 01:13:45;;;;;;;12.10;2.33;;;;;;;8.59;96.54;100809.97;4986885;28;20125;-74
2022/11/25 01:16:13;;;;;;;21.40;2.97;;;;;;;8.57;97.02;100801.06;5001629;28;20616;-74
2022/11/25 01:18:38;;;;;;;19.92;3.17;;;;;;;8.58;97.28;100802.78;4987836;28;20038;-74
2022/11/25 01:21:18;;;;;;;23.00;3.92;;;;;;;8.63;96.89;100808.81;4987438;28;20038;-74
2022/11/25 01:23:45;;;;;;;14.10;2.25;;;;;;;8.64;96.67;100805.13;4984684;28;20209;-74
2022/11/25 01:26:14;;;;;;;14.65;4.60;;;;;;;8.64;96.82;100813.25;4985244;28;20124;-74
2022/11/25 01:28:40;;;;;;;11.90;2.42;;;;;;;8.62;97.17;100812.47;4974093;28;20173;-74
2022/11/25 01:31:09;;;;;;;17.55;2.53;;;;;;;8.59;97.00;100812.69;5000391;28;20133;-74
2022/11/25 01:33:34;;;;;;;9.82;2.83;;;;;;;8.64;96.88;100815.97;4996755;28;20549;-73
2022/11/25 01:36:05;;;;;;;13.48;2.60;;;;;;;8.66;96.72;100825.72;5002122;28;20471;-73
2022/11/25 01:38:32;;;;;;;11.40;2.58;;;;;;;8.66;97.21;100825.72;4999620;28;20050;-73
2022/11/25 01:40:57;;;;;;;14.23;2.40;;;;;;;8.66;97.07;100816.72;4987283;28;20053;-74
2022/11/25 01:43:24;;;;;;;13.95;2.55;;;;;;;8.67;97.13;100837.44;4986711;28;20030;-74
2022/11/25 01:45:50;;;;;;;16.40;2.50;;;;;;;8.70;97.49;100839.97;4987170;28;20054;-74
2022/11/25 01:48:37;;;;;;;19.15;2.97;;;;;;;8.73;97.05;100836.22;4985452;28;20037;-74
2022/11/25 01:51:03;;;;;;;14.60;2.80;;;;;;;8.72;97.15;100832.63;4986942;28;20038;-73
2022/11/25 01:53:29;;;;;;;10.98;2.60;;;;;;;8.72;97.34;100842.56;4984381;28;20034;-74
2022/11/25 01:56:01;;;;;;;12.52;2.30;;;;;;;8.72;97.82;100851.59;5001999;28;20589;-73
2022/11/25 01:58:34;;;;;;;14.10;3.72;;;;;;;8.75;97.29;100851.38;4999069;28;20085;-73
2022/11/25 02:01:00;;;;;;;16.42;3.00;;;;;;;8.76;97.71;100857.69;4985588;28;20405;-73
2022/11/25 02:03:33;;;;;;;12.27;2.78;;;;;;;8.76;97.84;100860.41;4985988;28;20030;-74
2022/11/25 02:06:10;;;;;;;16.58;2.50;;;;;;;8.78;97.42;100862.06;4984930;28;20394;-74
2022/11/25 02:08:36;;;;;;;12.90;2.40;;;;;;;8.81;97.12;100863.69;4984548;28;20035;-73
2022/11/25 02:11:03;;;;;;;8.73;2.70;;;;;;;8.82;97.60;100863.59;4968627;28;20363;-74
2022/11/25 02:13:29;;;;;;;15.18;3.17;;;;;;;8.82;97.88;100869.03;4997741;28;20038;-75
2022/11/25 02:15:54;;;;;;;14.00;2.65;;;;;;;8.84;97.64;100874.34;4982873;28;20050;-74
2022/11/25 02:18:24;;;;;;;12.98;2.70;;;;;;;8.84;97.34;100877.91;4997801;28;20030;-74
2022/11/25 02:20:50;;;;;;;12.30;2.33;;;;;;;8.87;97.46;100879.59;5004142;28;20870;-74
2022/11/25 02:23:24;;;;;;;16.98;3.85;;;;;;;8.86;97.24;100883.25;5003549;28;20044;-74
2022/11/25 02:25:51;;;;;;;13.45;2.42;;;;;;;8.84;97.71;100888.78;5004493;28;20065;-74
2022/11/25 02:28:29;;;;;;;17.15;4.30;;;;;;;8.85;97.80;100889.63;4988012;28;20046;-74
2022/11/25 02:30:55;;;;;;;14.88;3.67;;;;;;;8.84;98.13;100887.91;4982024;28;20081;-75
2022/11/25 02:33:22;;;;;;;15.10;3.00;;;;;;;8.81;98.26;100890.81;4984966;28;20054;-74
2022/11/25 02:35:54;;;;;;;14.88;2.45;;;;;;;8.78;99.38;100891.88;4992775;28;20061;-75
2022/11/25 02:38:22;;;;;;;11.27;2.75;;;;;;;8.74;99.32;100897.59;5003742;28;20044;-74
2022/11/25 02:40:53;;;;;;;10.52;2.88;;;;;;;8.72;99.31;100897.72;5003608;28;20515;-75
2022/11/25 02:43:19;;;;;;;11.05;2.10;;;;;;;8.70;99.87;100894.22;4970047;28;20034;-74
2022/11/25 02:46:00;;;;;;;13.02;3.00;;;;;;;8.67;100.00;100898.00;4986686;28;20054;-74
2022/11/25 02:48:28;;;;;;;14.50;2.60;;;;;;;8.63;100.00;100903.72;4990793;28;20220;-74
2022/11/25 02:50:54;;;;;;;8.55;2.15;;;;;;;8.60;100.00;100901.19;4986119;28;20018;-75
2022/11/25 02:53:20;;;;;;;10.60;2.03;;;;;;;8.59;100.00;100897.63;4984766;28;20035;-75
2022/11/25 02:55:45;;;;;;;5.30;1.90;;;;;;;8.58;100.00;100893.16;4969031;28;20084;-75
2022/11/25 02:58:11;;;;;;;12.95;3.53;;;;;;;8.56;100.00;100895.09;4985753;28;20058;-74
2022/11/25 03:00:38;;;;;;;8.05;2.25;;;;;;;8.55;100.00;100877.09;4985514;28;20034;-74
2022/11/25 03:03:04;;;;;;;13.18;2.50;;;;;;;8.50;100.00;100832.25;4993259;28;20558;-74
2022/11/25 03:05:30;;;;;;;6.25;2.08;;;;;;;8.43;100.00;100816.38;4985649;28;20210;-75
2022/11/25 03:07:58;;;;;;;7.80;1.65;;;;;;;8.39;100.00;100812.13;4986040;28;20477;-75
2022/11/25 03:10:24;;;;;;;12.82;2.42;;;;;;;8.37;100.00;100805.94;4985247;28;20104;-75
2022/11/25 03:12:50;;;;;;;9.98;2.30;;;;;;;8.33;100.00;100822.44;4985475;28;20051;-74
2022/11/25 03:15:16;;;;;;;14.18;2.78;;;;;;;8.32;100.00;100839.69;4993339;28;20034;-75
2022/11/25 03:17:41;;;;;;;10.52;2.78;;;;;;;8.29;100.00;100845.28;4981928;28;20034;-74
2022/11/25 03:20:08;;;;;;;9.30;1.95;;;;;;;8.25;100.00;100863.56;4990025;28;20042;-75
2022/11/25 03:22:34;;;;;;;7.50;1.98;;;;;;;8.24;100.00;100869.97;4988590;28;20141;-74
2022/11/25 03:25:02;;;;;;;10.32;2.22;;;;;;;8.25;100.00;100887.09;5004187;28;20030;-74
2022/11/25 03:27:28;;;;;;;5.68;1.77;;;;;;;8.20;100.00;100868.41;4990354;28;20623;-75
2022/11/25 03:29:53;;;;;;;12.85;2.00;;;;;;;8.21;100.00;100855.72;4997239;28;20398;-74
2022/11/25 03:32:19;;;;;;;9.52;1.83;;;;;;;8.19;100.00;100866.69;4988456;28;20069;-75
2022/11/25 03:34:45;;;;;;;5.90;1.90;;;;;;;8.18;100.00;100873.06;5004569;28;20469;-74
2022/11/25 03:37:11;;;;;;;9.05;1.90;;;;;;;8.16;100.00;100888.56;4988438;28;20042;-74
2022/11/25 03:39:36;;;;;;;6.18;2.03;;;;;;;8.13;100.00;100903.16;4971333;28;20038;-74
2022/11/25 03:42:03;;;;;;;11.57;2.97;;;;;;;8.08;100.00;100904.41;4988306;28;20036;-75
2022/11/25 03:44:29;;;;;;;12.30;2.00;;;;;;;8.07;100.00;100895.41;4996707;28;20437;-74
2022/11/25 03:46:55;;;;;;;8.88;2.53;;;;;;;8.05;100.00;100902.75;4972909;28;20018;-74
2022/11/25 03:49:20;;;;;;;8.65;2.10;;;;;;;8.05;100.00;100904.59;5000567;28;20035;-74
2022/11/25 03:51:47;;;;;;;7.05;1.75;;;;;;;8.02;100.00;100905.66;5004869;28;20136;-75
2022/11/25 03:54:14;;;;;;;7.50;1.70;;;;;;;8.00;100.00;100901.28;5002989;28;20061;-75
2022/11/25 03:57:08;;;;;;;7.32;2.40;;;;;;;7.98;100.00;100906.81;5000599;28;20113;-74
2022/11/25 03:59:34;;;;;;;7.72;1.52;;;;;;;7.94;100.00;100902.53;4985479;28;20034;-74
2022/11/25 04:02:00;;;;;;;5.78;1.58;;;;;;;7.92;100.00;100915.28;4988263;28;20230;-74
2022/11/25 04:04:25;;;;;;;7.93;1.70;;;;;;;7.90;100.00;100922.66;4988710;28;20027;-74
2022/11/25 04:06:51;;;;;;;9.68;1.95;;;;;;;7.86;100.00;100910.25;4988016;28;20034;-74
2022/11/25 04:09:17;;;;;;;5.70;1.67;;;;;;;7.86;100.00;100926.50;4988124;28;20533;-74
2022/11/25 04:14:32;;;;;;;5.55;1.42;;;;;;;7.85;100.00;100932.91;4992813;28;20548;-74
2022/11/25 04:16:57;;;;;;;8.05;1.85;;;;;;;7.81;100.00;100934.03;4988248;28;20034;-74
2022/11/25 04:19:23;;;;;;;4.35;1.63;;;;;;;7.77;100.00;100930.63;4987521;28;20391;-74
2022/11/25 04:21:49;;;;;;;4.50;1.08;;;;;;;7.71;100.00;100939.13;4987718;28;20049;-74
2022/11/25 04:24:15;;;;;;;4.15;1.48;;;;;;;7.65;100.00;100948.50;4986490;28;20045;-74
2022/11/25 04:26:42;;;;;;;4.07;1.52;;;;;;;7.59;100.00;100954.25;4987118;28;20038;-74
2022/11/25 04:29:07;;;;;;;3.67;1.70;;;;;;;7.50;100.00;100949.38;4987019;28;20032;-75
2022/11/25 04:31:33;;;;;;;1.80;1.20;;;;;;;7.48;100.00;100953.13;5007137;28;20501;-74
2022/11/25 04:33:58;;;;;;;3.17;1.25;;;;;;;7.43;100.00;100961.53;4988035;28;20026;-75
2022/11/25 04:36:24;;;;;;;6.28;2.63;;;;;;;7.41;100.00;100966.13;4987942;28;20057;-75
2022/11/25 04:38:50;;;;;;;8.57;1.70;;;;;;;7.36;100.00;100971.81;4978827;28;20556;-75
2022/11/25 04:41:16;;;;;;;4.60;1.30;;;;;;;7.38;100.00;100974.44;4988483;28;20109;-75
2022/11/25 04:43:43;;;;;;;5.25;1.20;;;;;;;7.36;100.00;100976.34;4991290;28;20053;-75
2022/11/25 04:46:21;;;;;;;3.05;1.05;;;;;;;7.37;100.00;100970.88;5002734;28;20367;-75
2022/11/25 04:48:49;;;;;;;6.13;1.00;;;;;;;7.36;100.00;100979.94;4987042;28;20041;-74
2022/11/25 04:51:15;;;;;;;5.18;1.13;;;;;;;7.34;100.00;100981.88;4986925;28;20042;-74
2022/11/25 04:53:42;;;;;;;5.63;1.65;;;;;;;7.34;100.00;100975.59;4986186;28;20129;-75
2022/11/25 04:56:15;;;;;;;6.88;1.20;;;;;;;7.35;100.00;100980.91;4970401;28;20038;-75
2022/11/25 05:01:26;;;;;;;2.58;0.90;;;;;;;7.31;100.00;100989.28;4987856;28;20129;-74
2022/11/25 05:03:58;;;;;;;2.83;1.00;;;;;;;7.30;100.00;100999.22;5001317;28;20061;-75
2022/11/25 05:06:25;;;;;;;3.50;1.20;;;;;;;7.26;100.00;100992.25;5003888;28;20121;-74
2022/11/25 05:08:52;;;;;;;2.17;1.00;;;;;;;7.26;100.00;101008.47;5002486;28;20375;-74
2022/11/25 05:11:19;;;;;;;5.78;1.58;;;;;;;7.26;100.00;101011.19;4995650;28;20042;-75
2022/11/25 05:13:44;;;;;;;4.60;1.42;;;;;;;7.26;100.00;101000.34;4981704;28;20057;-74
2022/11/25 05:16:09;;;;;;;6.32;1.35;;;;;;;7.26;100.00;101003.06;4987063;28;20488;-74
2022/11/25 05:18:35;;;;;;;3.47;0.93;;;;;;;7.24;100.00;101004.13;4991924;28;20093;-74
2022/11/25 05:21:01;;;;;;;4.13;1.20;;;;;;;7.19;100.00;101008.94;4986631;28;20117;-74
2022/11/25 05:23:28;;;;;;;5.47;1.70;;;;;;;7.11;100.00;100993.09;4986585;28;20564;-74
2022/11/25 05:25:59;;;;;;;5.78;1.70;;;;;;;7.10;100.00;101008.47;4986049;28;20049;-75
2022/11/25 05:28:32;;;;;;;4.88;1.60;;;;;;;7.03;100.00;101004.34;4988415;28;20508;-74
2022/11/25 05:30:58;;;;;;;8.63;1.42;;;;;;;6.97;100.00;101014.63;4983934;28;20030;-75
2022/11/25 05:33:24;;;;;;;8.35;1.75;;;;;;;6.92;100.00;101008.63;4996318;28;20034;-74
2022/11/25 05:35:57;;;;;;;6.70;1.95;;;;;;;6.85;100.00;101017.06;4987970;28;20043;-75
2022/11/25 05:38:26;;;;;;;5.78;1.55;;;;;;;6.82;100.00;101019.94;4996085;28;20057;-74
2022/11/25 05:40:52;;;;;;;4.53;1.80;;;;;;;6.75;100.00;101015.78;4985776;28;20034;-74
2022/11/25 05:43:18;;;;;;;6.53;2.05;;;;;;;6.67;100.00;101017.16;4986467;28;20061;-75
2022/11/25 05:45:43;;;;;;;5.00;1.63;;;;;;;6.66;100.00;101021.69;4987808;28;20159;-74
2022/11/25 05:48:11;;;;;;;6.88;1.95;;;;;;;6.64;100.00;101026.31;4986124;28;20026;-74
2022/11/25 05:50:37;;;;;;;8.13;2.30;;;;;;;6.59;100.00;101023.84;5002642;28;20034;-73
2022/11/25 05:53:12;;;;;;;10.40;2.25;;;;;;;6.55;100.00;101024.97;4985177;28;20070;-74
2022/11/25 05:55:39;;;;;;;7.05;2.15;;;;;;;6.50;100.00;101026.19;4985813;28;20065;-73
2022/11/25 05:58:12;;;;;;;7.95;3.00;;;;;;;6.45;100.00;101022.84;5001285;28;20058;-74
2022/11/25 06:00:41;;;;;;;8.98;2.38;;;;;;;6.45;100.00;101037.22;4975767;28;20141;-73
2022/11/25 06:03:09;;;;;;;5.95;2.45;;;;;;;6.43;100.00;101038.25;4996580;28;20120;-74
2022/11/25 06:05:35;;;;;;;7.85;2.42;;;;;;;6.36;100.00;101032.31;4993940;28;20680;-73
2022/11/25 06:08:00;;;;;;;5.63;2.60;;;;;;;6.32;100.00;101041.53;4987540;28;20030;-75
2022/11/25 06:10:26;;;;;;;10.50;3.03;;;;;;;6.29;100.00;101042.53;5005535;28;20030;-74
2022/11/25 06:12:52;;;;;;;6.47;2.50;;;;;;;6.27;100.00;101039.06;4990910;28;20052;-74
2022/11/25 06:15:18;;;;;;;11.60;3.67;;;;;;;6.22;100.00;101051.06;4998821;28;20038;-75
2022/11/25 06:17:43;;;;;;;6.53;2.25;;;;;;;6.21;100.00;101047.47;4990168;28;20412;-74
2022/11/25 06:20:14;;;;;;;13.45;4.00;;;;;;;6.18;100.00;101052.16;4999700;28;20029;-74
2022/11/25 06:22:39;;;;;;;11.15;4.10;;;;;;;6.13;100.00;101053.25;4986541;28;20478;-74
2022/11/25 06:25:06;;;;;;;9.75;3.03;;;;;;;6.09;100.00;101058.91;5002360;28;20383;-75
2022/11/25 06:27:34;;;;;;;9.82;4.07;;;;;;;6.08;100.00;101059.84;4986486;28;20474;-75
2022/11/25 06:29:59;;;;;;;9.27;3.92;;;;;;;6.05;100.00;101052.78;4986501;28;20052;-75
2022/11/25 06:32:24;;;;;;;6.95;3.47;;;;;;;6.06;100.00;101069.84;5003245;28;20124;-75
2022/11/25 06:34:55;;;;;;;11.57;3.08;;;;;;;6.06;100.00;101075.25;4988137;28;20060;-75
2022/11/25 06:37:31;;;;;;;12.77;3.70;;;;;;;6.07;100.00;101074.31;4977747;28;20042;-75
2022/11/25 06:39:56;;;;;;;8.90;3.38;;;;;;;6.05;100.00;101084.31;4984630;28;20516;-75
2022/11/25 06:42:21;;;;;;;9.45;3.05;;;;;;;6.06;100.00;101081.56;5005086;28;20041;-75
2022/11/25 06:44:47;;;;;;;8.95;3.05;;;;;;;6.05;100.00;101079.78;4989767;28;20133;-75
2022/11/25 06:47:12;;;;;;;8.80;3.03;;;;;;;6.02;100.00;101085.34;5000251;28;20403;-76
2022/11/25 06:49:37;;;;;;;8.80;3.47;;;;;;;6.01;100.00;101086.28;4986332;28;20117;-76
2022/11/25 06:52:03;;;;;;;6.97;2.67;;;;;;;6.00;100.00;101097.16;5003029;28;20061;-75
2022/11/25 06:54:28;;;;;;;9.93;3.50;;;;;;;5.95;100.00;101092.00;4987039;28;20045;-75
2022/11/25 06:56:54;;;;;;;11.40;2.58;;;;;;;5.92;100.00;101094.84;5004228;28;20061;-75
2022/11/25 06:59:20;;;;;;;6.35;2.75;;;;;;;5.88;100.00;101087.81;4998046;28;20453;-75
2022/11/25 07:01:46;;;;;;;5.80;2.58;;;;;;;5.86;100.00;101103.22;4988671;28;20050;-75
2022/11/25 07:04:12;;;;;;;7.35;2.53;;;;;;;5.84;100.00;101099.72;5003193;28;20423;-74
2022/11/25 07:06:38;;;;;;;6.45;2.70;;;;;;;5.79;100.00;101108.03;5005261;28;20072;-75
2022/11/25 07:09:04;;;;;;;11.55;3.03;;;;;;;5.79;100.00;101105.34;5007590;28;20126;-74
2022/11/25 07:11:32;;;;;;;8.85;2.53;;;;;;;5.76;100.00;101112.72;5003051;28;20069;-75
2022/11/25 07:14:00;;;;;;;7.57;2.30;;;;;;;5.74;100.00;101115.50;4989974;28;20073;-75
2022/11/25 07:16:26;;;;;;;9.73;2.78;;;;;;;5.74;100.00;101122.72;4991137;28;20065;-75
2022/11/25 07:18:51;;;;;;;11.85;2.45;;;;;;;5.72;100.00;101133.56;4989117;28;20022;-74
2022/11/25 07:21:23;;;;;;;13.32;2.95;;;;;;;5.69;100.00;101122.94;4989655;28;20054;-74
2022/11/25 07:23:50;;;;;;;6.70;2.38;;;;;;;5.73;100.00;101139.84;4989109;28;20049;-75
2022/11/25 07:26:24;;;;;;;8.50;2.70;;;;;;;5.70;100.00;101132.78;4989551;28;20034;-75
2022/11/25 07:28:52;;;;;;;7.18;2.13;;;;;;;5.67;100.00;101141.00;4992922;28;20038;-75
2022/11/25 07:31:28;;;;;;;7.18;2.63;;;;;;;5.67;100.00;101148.25;4972402;28;20042;-75
2022/11/25 07:33:56;;;;;;;10.45;3.10;;;;;;;5.66;100.00;101158.16;4994851;28;20046;-75
2022/11/25 07:36:23;;;;;;;7.57;2.65;;;;;;;5.64;100.00;101157.34;4989863;28;20207;-75
2022/11/25 07:38:48;;;;;;;6.38;2.50;;;;;;;5.67;100.00;101159.91;4988265;28;20042;-75
2022/11/25 07:41:17;;;;;;;9.15;2.72;;;;;;;5.67;100.00;101167.13;4987183;28;20393;-74
2022/11/25 07:43:47;;;;;;;8.77;2.70;;;;;;;5.65;100.00;101167.22;4988599;28;20406;-74
2022/11/25 07:46:23;;;;;;;6.40;2.75;;;;;;;5.63;100.00;101179.88;4972307;28;20054;-74
2022/11/25 07:48:49;;;;;;;8.82;2.90;;;;;;;5.62;100.00;101183.53;4988020;28;20485;-74
2022/11/25 07:51:20;;;;;;;11.18;3.08;;;;;;;5.63;100.00;101190.69;4988099;28;20050;-74
2022/11/25 07:53:47;;;;;;;10.48;3.35;;;;;;;5.65;100.00;101185.22;4987269;28;20046;-74
2022/11/25 07:56:13;;;;;;;8.55;2.58;;;;;;;5.65;100.00;101187.94;4987406;28;20030;-75
2022/11/25 07:58:39;;;;;;;11.15;2.47;;;;;;;5.71;100.00;101198.44;5001102;28;20034;-74
2022/11/25 08:01:06;;;;;;;8.40;2.40;;;;;;;5.73;100.00;101207.31;4988308;28;20034;-74
2022/11/25 08:03:32;;;;;;;6.30;2.55;;;;;;;5.74;100.00;101211.81;4993351;28;20474;-75
2022/11/25 08:06:02;;;;;;;6.25;2.55;;;;;;;5.77;100.00;101219.72;4988439;28;20049;-74
2022/11/25 08:08:28;;;;;;;9.70;2.63;;;;;;;5.77;100.00;101225.13;4987170;28;20073;-74
2022/11/25 08:10:53;;;;;;;9.55;2.50;;;;;;;5.79;100.00;101221.44;4987145;28;20034;-74
2022/11/25 08:13:18;;;;;;;7.15;3.97;;;;;;;5.82;100.00;101229.38;5000317;28;20055;-74
2022/11/25 08:15:44;;;;;;;6.53;2.85;;;;;;;5.78;100.00;101229.59;4989091;28;20113;-75
2022/11/25 08:18:09;;;;;;;11.80;2.92;;;;;;;5.82;100.00;101234.75;4988288;28;20153;-74
2022/11/25 08:20:35;;;;;;;10.27;3.15;;;;;;;5.88;100.00;101239.03;4988716;28;20046;-75
2022/11/25 08:23:00;;;;;;;7.50;2.42;;;;;;;5.89;100.00;101238.94;4987175;28;20420;-74
2022/11/25 08:25:25;;;;;;;11.93;3.30;;;;;;;5.94;100.00;101238.75;4971201;28;20035;-75
2022/11/25 08:27:51;;;;;;;5.22;2.40;;;;;;;5.97;100.00;101245.81;4987588;28;20161;-75
2022/11/25 08:30:17;;;;;;;12.23;3.08;;;;;;;6.00;100.00;101243.00;4987096;28;20541;-75
2022/11/25 08:32:42;;;;;;;16.58;3.33;;;;;;;6.02;100.00;101242.00;4999516;28;20042;-75
2022/11/25 08:35:08;;;;;;;9.15;2.83;;;;;;;6.05;100.00;101244.53;4988592;28;20109;-74
2022/11/25 08:37:33;;;;;;;10.00;3.22;;;;;;;6.12;100.00;101251.41;4986719;28;20116;-75
2022/11/25 08:39:59;;;;;;;9.32;3.00;;;;;;;6.14;100.00;101249.50;4987985;28;20045;-75
2022/11/25 08:42:24;;;;;;;8.02;2.85;;;;;;;6.18;100.00;101250.22;4988882;28;20042;-74
2022/11/25 08:44:54;;;;;;;11.48;3.75;;;;;;;6.23;100.00;101255.41;4998551;28;20553;-74
2022/11/25 08:47:20;;;;;;;6.93;2.60;;;;;;;6.26;100.00;101253.44;5001194;28;20397;-74
2022/11/25 08:49:49;;;;;;;8.63;5.05;;;;;;;6.30;100.00;101255.06;4988008;28;20126;-74
2022/11/25 08:52:15;;;;;;;9.90;3.38;;;;;;;6.39;100.00;101257.31;4986932;28;20125;-75
2022/11/25 08:54:40;;;;;;;8.73;3.35;;;;;;;6.44;100.00;101253.53;4987687;28;20165;-74
2022/11/25 08:57:06;;;;;;;5.90;3.53;;;;;;;6.52;100.00;101260.28;4987776;28;20423;-74
2022/11/25 08:59:31;;;;;;;11.38;3.10;;;;;;;6.56;100.00;101266.41;4994726;28;20038;-75
2022/11/25 09:01:57;;;;;;;8.73;2.95;;;;;;;6.60;100.00;101268.00;4971291;28;20046;-74
2022/11/25 09:04:22;;;;;;;20.45;5.38;;;;;;;6.65;100.00;101277.66;4982324;28;20053;-74
2022/11/25 09:06:47;;;;;;;11.85;3.78;;;;;;;6.72;100.00;101274.66;4987781;28;20042;-74
2022/11/25 09:09:13;;;;;;;8.52;3.30;;;;;;;6.76;100.00;101277.13;4986920;28;20037;-75
2022/11/25 09:11:38;;;;;;;11.00;3.28;;;;;;;6.86;100.00;101277.56;4985965;28;20402;-76
2022/11/25 09:14:04;;;;;;;9.48;3.65;;;;;;;6.90;100.00;101282.72;4985850;28;20030;-75
2022/11/25 09:16:29;;;;;;;11.05;3.83;;;;;;;6.96;100.00;101281.53;4984157;28;20049;-75
2022/11/25 09:18:54;;;;;;;12.13;3.75;;;;;;;7.03;100.00;101284.78;4988037;28;20409;-75
2022/11/25 09:21:20;;;;;;;8.32;3.25;;;;;;;7.06;100.00;101288.22;4987555;28;20133;-74
2022/11/25 09:23:49;;;;;;;12.93;4.18;;;;;;;7.13;100.00;101288.78;4986677;28;20068;-75
2022/11/25 09:26:24;;;;;;;10.82;3.35;;;;;;;7.18;100.00;101300.28;4985905;28;20125;-75
2022/11/25 09:28:49;;;;;;;10.23;3.22;;;;;;;7.24;100.00;101304.50;4993947;28;20038;-75
2022/11/25 09:31:14;;;;;;;10.63;3.35;;;;;;;7.30;100.00;101304.16;5001515;28;20038;-74
2022/11/25 09:33:40;;;;;;;9.27;3.78;;;;;;;7.34;100.00;101308.47;4996849;28;20046;-75
2022/11/25 09:36:06;;;;;;;14.60;3.65;;;;;;;7.40;100.00;101308.16;5002393;28;20502;-75
2022/11/25 09:38:31;;;;;;;14.10;3.15;;;;;;;7.45;100.00;101314.19;4997582;28;20034;-74
2022/11/25 09:41:02;;;;;;;11.65;3.72;;;;;;;7.52;100.00;101320.19;4986313;28;20030;-75
2022/11/25 09:47:15;;;;;;;14.10;3.75;;;;;;;7.66;100.00;101323.91;4968386;28;20045;-74
2022/11/25 09:50:04;;;;;;;9.88;3.25;;;;;;;7.72;100.00;101325.41;4985529;28;20153;-75
2022/11/25 09:52:40;;;;;;;13.80;3.28;;;;;;;7.75;100.00;101333.38;4988609;28;20057;-74
2022/11/25 09:55:15;;;;;;;11.43;3.03;;;;;;;7.82;100.00;101339.34;4985008;28;20048;-75
2022/11/25 09:58:00;;;;;;;14.82;4.43;;;;;;;7.88;100.00;101339.00;4987260;28;20077;-75
2022/11/25 10:00:37;;;;;;;11.65;3.20;;;;;;;7.93;100.00;101342.38;4986607;28;20125;-74
2022/11/25 10:03:29;;;;;;;17.48;3.33;;;;;;;7.99;100.00;101344.75;4986557;28;20489;-74
2022/11/25 10:06:17;;;;;;;11.13;3.25;;;;;;;8.05;100.00;101348.94;4977867;28;20480;-75
2022/11/25 10:09:19;;;;;;;15.30;4.35;;;;;;;8.10;100.00;101342.31;4985784;28;20042;-74
2022/11/25 10:11:59;;;;;;;9.00;2.88;;;;;;;8.20;100.00;101358.94;4985477;28;20073;-75
2022/11/25 10:14:38;;;;;;;9.40;3.05;;;;;;;8.25;100.00;101362.28;4986979;28;20041;-74
2022/11/25 10:17:28;;;;;;;9.38;3.65;;;;;;;8.34;100.00;101364.50;4985254;28;20034;-74
2022/11/25 10:20:03;;;;;;;10.55;3.08;;;;;;;8.42;100.00;101373.13;5000637;28;20462;-75
2022/11/25 10:22:32;;;;;;;8.18;2.83;;;;;;;8.50;100.00;101383.56;4986779;28;20030;-75
2022/11/25 10:25:00;;;;;;;9.60;2.50;;;;;;;8.57;100.00;101386.78;4986627;28;20568;-74
2022/11/25 10:27:40;;;;;;;7.55;3.08;;;;;;;8.64;100.00;101382.78;4989668;28;20034;-74
2022/11/25 10:30:18;;;;;;;11.95;2.38;;;;;;;8.75;100.00;101382.19;4991815;28;20041;-74
2022/11/25 10:32:50;;;;;;;6.53;2.80;;;;;;;8.78;100.00;101382.88;4989040;28;20052;-75
2022/11/25 10:35:26;;;;;;;11.57;3.23;;;;;;;8.87;100.00;101386.94;4973224;28;20204;-75
2022/11/25 10:37:54;;;;;;;8.00;2.60;;;;;;;8.99;99.96;101394.34;4988661;28;20042;-74
2022/11/25 10:40:20;;;;;;;7.57;2.72;;;;;;;9.04;98.12;101392.25;4988622;28;20441;-75
2022/11/25 10:42:45;;;;;;;6.32;2.92;;;;;;;9.09;97.46;101394.69;4989144;28;20046;-74
2022/11/25 10:45:11;;;;;;;8.95;1.85;;;;;;;9.19;98.07;101407.66;4977417;28;20030;-74
2022/11/25 10:48:06;;;;;;;11.52;2.30;;;;;;;9.28;97.31;101409.00;4991910;28;20439;-74
2022/11/25 10:50:59;;;;;;;7.70;2.50;;;;;;;9.39;98.09;101403.78;4972955;28;20500;-75
2022/11/25 10:53:26;;;;;;;4.35;2.20;;;;;;;9.49;96.13;101417.69;4988541;28;20030;-74
2022/11/25 10:56:10;;;;;;;7.78;3.17;;;;;;;9.54;97.09;101420.16;4988286;28;20038;-74
2022/11/25 10:58:38;;;;;;;9.48;2.97;;;;;;;9.57;94.98;101411.81;4989748;28;20466;-74
2022/11/25 11:01:17;;;;;;;8.23;2.03;;;;;;;9.64;94.74;101419.50;4990016;28;20026;-74
2022/11/25 11:03:52;;;;;;;4.63;2.40;;;;;;;9.70;92.77;101429.16;4988435;28;20450;-74
2022/11/25 11:06:38;;;;;;;14.77;2.35;;;;;;;9.74;93.48;101424.38;4990435;28;20052;-74
2022/11/25 11:09:04;;;;;;;12.10;3.53;;;;;;;9.80;92.49;101424.03;4987993;28;20415;-74
2022/11/25 11:11:29;;;;;;;11.73;2.72;;;;;;;9.84;92.11;101423.78;4989244;28;20442;-75
2022/11/25 11:14:19;;;;;;;9.95;2.85;;;;;;;9.94;92.95;101426.81;4988919;28;20061;-74
2022/11/25 11:16:52;;;;;;;6.43;2.15;;;;;;;9.99;91.55;101429.25;4989579;28;20034;-74
2022/11/25 11:19:23;;;;;;;7.22;2.08;;;;;;;10.03;91.72;101436.25;4988461;28;20498;-74
2022/11/25 11:21:50;;;;;;;11.63;2.53;;;;;;;10.14;91.66;101442.75;4988317;28;20038;-74
2022/11/25 11:24:30;;;;;;;8.65;2.20;;;;;;;10.16;89.76;101454.41;4987219;28;20458;-74
2022/11/25 11:27:19;;;;;;;8.30;2.15;;;;;;;10.20;89.34;101450.53;4988779;28;20046;-74
2022/11/25 11:29:45;;;;;;;5.03;2.08;;;;;;;10.22;88.11;101458.63;5001788;28;20053;-74
2022/11/25 11:32:23;;;;;;;7.07;1.70;;;;;;;10.28;89.95;101461.00;4988308;28;20378;-74
2022/11/25 11:35:21;;;;;;;13.35;2.13;;;;;;;10.33;89.67;101463.44;4987437;28;20512;-74
2022/11/25 11:37:52;;;;;;;6.65;2.13;;;;;;;10.32;88.41;101465.28;5006596;28;20050;-74
2022/11/25 11:40:45;;;;;;;7.90;2.08;;;;;;;10.38;87.99;101472.19;5008415;28;20030;-74
2022/11/25 11:43:40;;;;;;;12.32;2.92;;;;;;;10.44;89.44;101472.69;4987583;28;20118;-74
2022/11/25 11:46:32;;;;;;;7.75;2.25;;;;;;;10.49;88.16;101480.53;5003404;28;20478;-75
2022/11/25 11:49:03;;;;;;;10.23;2.40;;;;;;;10.55;88.16;101476.59;4988769;28;20057;-74